sensor_id;sensor_type;location;lat;lon;timestamp;pressure;altitude;pressure_sealevel;temperature;humidity
13422;BME280;6782;55.904;13.396;2023-07-20T00:00:45;100452.75;;;12.66;100.00
13422;BME280;6782;55.904;13.396;2023-07-20T00:03:33;100441.94;;;12.49;100.00
13422;BME280;6782;55.904;13.396;2023-07-20T00:06:21;100460.50;;;12.47;100.00
13422;BME280;6782;55.904;13.396;2023-07-20T00:09:09;100463.09;;;12.49;100.00
13422;BME280;6782;55.904;13.396;2023-07-20T00:11:59;100467.56;;;12.47;100.00
13422;BME280;6782;55.904;13.396;2023-07-20T00:14:46;100468.75;;;12.38;100.00
13422;BME280;6782;55.904;13.396;2023-07-20T00:17:34;100486.78;;;12.52;100.00
13422;BME280;6782;55.904;13.396;2023-07-20T00:20:27;100488.03;;;12.42;100.00
13422;BME280;6782;55.904;13.396;2023-07-20T00:23:14;100491.56;;;12.41;100.00
13422;BME280;6782;55.904;13.396;2023-07-20T00:26:02;100480.53;;;12.30;100.00
13422;BME280;6782;55.904;13.396;2023-07-20T00:28:51;100485.22;;;12.22;100.00
13422;BME280;6782;55.904;13.396;2023-07-20T00:31:38;100487.03;;;12.20;100.00
13422;BME280;6782;55.904;13.396;2023-07-20T00:34:27;100488.97;;;12.15;100.00
13422;BME280;6782;55.904;13.396;2023-07-20T00:37:15;100496.19;;;12.10;100.00
13422;BME280;6782;55.904;13.396;2023-07-20T00:40:04;100499.66;;;12.12;100.00
13422;BME280;6782;55.904;13.396;2023-07-20T00:42:53;100503.31;;;12.08;100.00
13422;BME280;6782;55.904;13.396;2023-07-20T00:45:43;100512.75;;;12.15;100.00
13422;BME280;6782;55.904;13.396;2023-07-20T00:48:31;100513.63;;;12.15;100.00
13422;BME280;6782;55.904;13.396;2023-07-20T00:51:19;100518.41;;;12.04;100.00
13422;BME280;6782;55.904;13.396;2023-07-20T00:54:08;100521.00;;;12.06;100.00
13422;BME280;6782;55.904;13.396;2023-07-20T00:56:55;100513.59;;;11.89;100.00
13422;BME280;6782;55.904;13.396;2023-07-20T00:59:44;100516.41;;;11.84;100.00
13422;BME280;6782;55.904;13.396;2023-07-20T01:02:33;100525.53;;;11.74;100.00
13422;BME280;6782;55.904;13.396;2023-07-20T01:05:26;100518.78;;;11.64;100.00
13422;BME280;6782;55.904;13.396;2023-07-20T01:08:26;100525.81;;;11.65;100.00
13422;BME280;6782;55.904;13.396;2023-07-20T01:11:21;100528.56;;;11.61;100.00
13422;BME280;6782;55.904;13.396;2023-07-20T01:14:11;100540.97;;;11.59;100.00
13422;BME280;6782;55.904;13.396;2023-07-20T01:16:59;100557.59;;;11.62;100.00
13422;BME280;6782;55.904;13.396;2023-07-20T01:19:49;100569.78;;;11.66;100.00
13422;BME280;6782;55.904;13.396;2023-07-20T01:22:51;100575.34;;;11.57;100.00
13422;BME280;6782;55.904;13.396;2023-07-20T01:26:00;100579.59;;;11.63;100.00
13422;BME280;6782;55.904;13.396;2023-07-20T01:29:02;100594.56;;;11.62;100.00
13422;BME280;6782;55.904;13.396;2023-07-20T01:31:57;100601.69;;;11.60;100.00
13422;BME280;6782;55.904;13.396;2023-07-20T01:34:47;100589.56;;;11.53;100.00
13422;BME280;6782;55.904;13.396;2023-07-20T01:37:35;100600.22;;;11.50;100.00
13422;BME280;6782;55.904;13.396;2023-07-20T01:40:25;100605.50;;;11.50;100.00
13422;BME280;6782;55.904;13.396;2023-07-20T01:43:14;100609.00;;;11.51;100.00
13422;BME280;6782;55.904;13.396;2023-07-20T01:46:02;100615.88;;;11.56;100.00
13422;BME280;6782;55.904;13.396;2023-07-20T01:48:51;100631.38;;;11.70;100.00
13422;BME280;6782;55.904;13.396;2023-07-20T01:51:40;100619.53;;;11.52;100.00
13422;BME280;6782;55.904;13.396;2023-07-20T01:54:28;100620.50;;;11.48;100.00
13422;BME280;6782;55.904;13.396;2023-07-20T01:57:16;100631.72;;;11.56;100.00
13422;BME280;6782;55.904;13.396;2023-07-20T02:00:05;100630.00;;;11.55;100.00
13422;BME280;6782;55.904;13.396;2023-07-20T02:02:53;100639.19;;;11.42;100.00
13422;BME280;6782;55.904;13.396;2023-07-20T02:05:43;100634.16;;;11.33;100.00
13422;BME280;6782;55.904;13.396;2023-07-20T02:08:31;100634.94;;;11.37;100.00
13422;BME280;6782;55.904;13.396;2023-07-20T02:11:18;100648.91;;;11.40;100.00
13422;BME280;6782;55.904;13.396;2023-07-20T02:14:05;100647.28;;;11.36;100.00
13422;BME280;6782;55.904;13.396;2023-07-20T02:16:53;100644.72;;;11.33;100.00
13422;BME280;6782;55.904;13.396;2023-07-20T02:19:43;100637.50;;;11.09;100.00
13422;BME280;6782;55.904;13.396;2023-07-20T02:22:32;100631.63;;;10.98;100.00
13422;BME280;6782;55.904;13.396;2023-07-20T02:25:20;100645.63;;;11.00;100.00
13422;BME280;6782;55.904;13.396;2023-07-20T02:28:08;100654.88;;;11.16;100.00
13422;BME280;6782;55.904;13.396;2023-07-20T02:30:55;100672.78;;;11.37;100.00
13422;BME280;6782;55.904;13.396;2023-07-20T02:33:43;100675.59;;;11.31;100.00
13422;BME280;6782;55.904;13.396;2023-07-20T02:36:31;100671.19;;;11.30;100.00
13422;BME280;6782;55.904;13.396;2023-07-20T02:39:20;100673.03;;;11.28;100.00
13422;BME280;6782;55.904;13.396;2023-07-20T02:42:08;100664.63;;;11.14;100.00
13422;BME280;6782;55.904;13.396;2023-07-20T02:44:56;100681.69;;;11.33;100.00
13422;BME280;6782;55.904;13.396;2023-07-20T02:47:43;100685.25;;;11.32;100.00
13422;BME280;6782;55.904;13.396;2023-07-20T02:50:33;100674.16;;;11.19;100.00
13422;BME280;6782;55.904;13.396;2023-07-20T02:53:21;100683.66;;;11.25;100.00
13422;BME280;6782;55.904;13.396;2023-07-20T02:56:12;100677.75;;;11.17;100.00
13422;BME280;6782;55.904;13.396;2023-07-20T02:59:01;100668.81;;;11.21;100.00
13422;BME280;6782;55.904;13.396;2023-07-20T03:01:48;100662.72;;;11.19;100.00
13422;BME280;6782;55.904;13.396;2023-07-20T03:04:36;100664.63;;;11.14;100.00
13422;BME280;6782;55.904;13.396;2023-07-20T03:07:24;100664.69;;;11.11;100.00
13422;BME280;6782;55.904;13.396;2023-07-20T03:10:13;100672.50;;;11.15;100.00
13422;BME280;6782;55.904;13.396;2023-07-20T03:13:02;100679.31;;;11.24;100.00
13422;BME280;6782;55.904;13.396;2023-07-20T03:15:51;100685.41;;;11.26;100.00
13422;BME280;6782;55.904;13.396;2023-07-20T03:18:39;100674.91;;;11.23;100.00
13422;BME280;6782;55.904;13.396;2023-07-20T03:21:26;100687.69;;;11.38;100.00
13422;BME280;6782;55.904;13.396;2023-07-20T03:24:14;100679.78;;;11.38;100.00
13422;BME280;6782;55.904;13.396;2023-07-20T03:27:01;100682.91;;;11.52;100.00
13422;BME280;6782;55.904;13.396;2023-07-20T03:29:50;100689.59;;;11.65;100.00
13422;BME280;6782;55.904;13.396;2023-07-20T03:32:38;100703.13;;;11.85;100.00
13422;BME280;6782;55.904;13.396;2023-07-20T03:35:25;100745.56;;;12.93;100.00
13422;BME280;6782;55.904;13.396;2023-07-20T03:38:13;100790.84;;;14.35;100.00
13422;BME280;6782;55.904;13.396;2023-07-20T03:41:01;100812.13;;;15.65;100.00
13422;BME280;6782;55.904;13.396;2023-07-20T03:43:48;100778.53;;;16.22;100.00
13422;BME280;6782;55.904;13.396;2023-07-20T03:46:38;100676.44;;;15.48;100.00
13422;BME280;6782;55.904;13.396;2023-07-20T03:49:25;100615.81;;;15.16;100.00
13422;BME280;6782;55.904;13.396;2023-07-20T03:52:13;100542.41;;;14.75;100.00
13422;BME280;6782;55.904;13.396;2023-07-20T03:55:00;100500.63;;;14.39;100.00
13422;BME280;6782;55.904;13.396;2023-07-20T03:57:47;100510.56;;;15.52;100.00
13422;BME280;6782;55.904;13.396;2023-07-20T04:00:36;100496.50;;;16.73;100.00
13422;BME280;6782;55.904;13.396;2023-07-20T04:03:25;100482.50;;;18.42;100.00
13422;BME280;6782;55.904;13.396;2023-07-20T04:06:12;100406.34;;;19.07;100.00
13422;BME280;6782;55.904;13.396;2023-07-20T04:09:00;100307.22;;;19.51;100.00
13422;BME280;6782;55.904;13.396;2023-07-20T04:11:47;100187.81;;;19.10;100.00
13422;BME280;6782;55.904;13.396;2023-07-20T04:14:34;100072.09;;;18.30;100.00
13422;BME280;6782;55.904;13.396;2023-07-20T04:17:21;99984.66;;;16.97;100.00
13422;BME280;6782;55.904;13.396;2023-07-20T04:20:10;99959.94;;;15.76;100.00
13422;BME280;6782;55.904;13.396;2023-07-20T04:22:57;100008.91;;;15.23;100.00
13422;BME280;6782;55.904;13.396;2023-07-20T04:25:44;100052.84;;;15.30;100.00
13422;BME280;6782;55.904;13.396;2023-07-20T04:28:31;100093.41;;;15.98;100.00
13422;BME280;6782;55.904;13.396;2023-07-20T04:31:19;100105.25;;;16.08;100.00
13422;BME280;6782;55.904;13.396;2023-07-20T04:34:06;100095.81;;;15.71;100.00
13422;BME280;6782;55.904;13.396;2023-07-20T04:36:55;100086.41;;;15.31;100.00
13422;BME280;6782;55.904;13.396;2023-07-20T04:39:42;100095.53;;;14.93;100.00
13422;BME280;6782;55.904;13.396;2023-07-20T04:42:29;100116.59;;;14.62;100.00
13422;BME280;6782;55.904;13.396;2023-07-20T04:45:16;100145.53;;;14.66;100.00
13422;BME280;6782;55.904;13.396;2023-07-20T04:48:08;100168.94;;;14.94;100.00
13422;BME280;6782;55.904;13.396;2023-07-20T04:50:57;100170.00;;;14.90;100.00
13422;BME280;6782;55.904;13.396;2023-07-20T04:53:45;100203.78;;;15.39;100.00
13422;BME280;6782;55.904;13.396;2023-07-20T04:56:32;100198.16;;;15.28;100.00
13422;BME280;6782;55.904;13.396;2023-07-20T04:59:20;100198.78;;;15.16;100.00
13422;BME280;6782;55.904;13.396;2023-07-20T05:02:07;100213.19;;;15.63;100.00
13422;BME280;6782;55.904;13.396;2023-07-20T05:04:54;100216.06;;;15.76;100.00
13422;BME280;6782;55.904;13.396;2023-07-20T05:07:41;100218.63;;;15.78;100.00
13422;BME280;6782;55.904;13.396;2023-07-20T05:10:30;100220.03;;;15.68;100.00
13422;BME280;6782;55.904;13.396;2023-07-20T05:13:18;100218.50;;;15.63;100.00
13422;BME280;6782;55.904;13.396;2023-07-20T05:16:05;100210.19;;;15.35;100.00
13422;BME280;6782;55.904;13.396;2023-07-20T05:18:53;100236.75;;;15.70;100.00
13422;BME280;6782;55.904;13.396;2023-07-20T05:21:40;100250.47;;;15.95;100.00
13422;BME280;6782;55.904;13.396;2023-07-20T05:24:27;100239.41;;;15.87;100.00
13422;BME280;6782;55.904;13.396;2023-07-20T05:27:15;100247.50;;;16.01;100.00
13422;BME280;6782;55.904;13.396;2023-07-20T05:30:04;100240.03;;;15.75;100.00
13422;BME280;6782;55.904;13.396;2023-07-20T05:32:52;100254.66;;;15.83;100.00
13422;BME280;6782;55.904;13.396;2023-07-20T05:35:40;100251.75;;;15.88;100.00
13422;BME280;6782;55.904;13.396;2023-07-20T05:38:27;100282.63;;;16.40;100.00
13422;BME280;6782;55.904;13.396;2023-07-20T05:41:14;100282.34;;;16.45;100.00
13422;BME280;6782;55.904;13.396;2023-07-20T05:44:03;100255.28;;;16.37;100.00
13422;BME280;6782;55.904;13.396;2023-07-20T05:46:51;100269.81;;;16.47;100.00
13422;BME280;6782;55.904;13.396;2023-07-20T05:49:40;100237.75;;;16.17;100.00
13422;BME280;6782;55.904;13.396;2023-07-20T05:52:27;100250.63;;;16.09;100.00
13422;BME280;6782;55.904;13.396;2023-07-20T05:55:14;100247.50;;;16.01;100.00
13422;BME280;6782;55.904;13.396;2023-07-20T05:58:02;100256.91;;;15.91;100.00
13422;BME280;6782;55.904;13.396;2023-07-20T06:00:51;100262.06;;;15.94;100.00
13422;BME280;6782;55.904;13.396;2023-07-20T06:03:39;100267.84;;;16.02;100.00
13422;BME280;6782;55.904;13.396;2023-07-20T06:06:28;100268.56;;;16.21;100.00
13422;BME280;6782;55.904;13.396;2023-07-20T06:09:15;100245.97;;;15.97;100.00
13422;BME280;6782;55.904;13.396;2023-07-20T06:12:03;100244.84;;;16.01;100.00
13422;BME280;6782;55.904;13.396;2023-07-20T06:14:50;100240.66;;;15.97;100.00
13422;BME280;6782;55.904;13.396;2023-07-20T06:17:41;100250.94;;;16.03;100.00
13422;BME280;6782;55.904;13.396;2023-07-20T06:20:29;100224.09;;;15.75;100.00
13422;BME280;6782;55.904;13.396;2023-07-20T06:23:18;100217.88;;;15.58;100.00
13422;BME280;6782;55.904;13.396;2023-07-20T06:26:06;100200.88;;;15.44;100.00
13422;BME280;6782;55.904;13.396;2023-07-20T06:28:54;100220.97;;;15.66;100.00
13422;BME280;6782;55.904;13.396;2023-07-20T06:31:41;100235.13;;;16.00;100.00
13422;BME280;6782;55.904;13.396;2023-07-20T06:34:30;100220.75;;;16.04;100.00
13422;BME280;6782;55.904;13.396;2023-07-20T06:37:22;100203.59;;;16.09;100.00
13422;BME280;6782;55.904;13.396;2023-07-20T06:40:10;100209.97;;;16.38;100.00
13422;BME280;6782;55.904;13.396;2023-07-20T06:42:58;100201.41;;;16.64;100.00
13422;BME280;6782;55.904;13.396;2023-07-20T06:45:51;100200.75;;;17.06;100.00
13422;BME280;6782;55.904;13.396;2023-07-20T06:48:39;100177.06;;;17.16;100.00
13422;BME280;6782;55.904;13.396;2023-07-20T06:51:29;100157.31;;;17.20;100.00
13422;BME280;6782;55.904;13.396;2023-07-20T06:54:17;100101.69;;;17.00;100.00
13422;BME280;6782;55.904;13.396;2023-07-20T06:57:05;100082.94;;;17.01;100.00
13422;BME280;6782;55.904;13.396;2023-07-20T06:59:53;100073.16;;;17.02;100.00
13422;BME280;6782;55.904;13.396;2023-07-20T07:02:40;100052.19;;;16.96;100.00
13422;BME280;6782;55.904;13.396;2023-07-20T07:05:27;100067.34;;;17.09;100.00
13422;BME280;6782;55.904;13.396;2023-07-20T07:08:16;100023.19;;;16.91;100.00
13422;BME280;6782;55.904;13.396;2023-07-20T07:11:04;100034.31;;;17.12;100.00
13422;BME280;6782;55.904;13.396;2023-07-20T07:13:52;100036.75;;;17.59;100.00
13422;BME280;6782;55.904;13.396;2023-07-20T07:16:40;99988.75;;;17.59;100.00
13422;BME280;6782;55.904;13.396;2023-07-20T07:19:27;99934.50;;;17.17;100.00
13422;BME280;6782;55.904;13.396;2023-07-20T07:22:15;99983.59;;;17.27;100.00
13422;BME280;6782;55.904;13.396;2023-07-20T07:25:06;99985.59;;;16.96;100.00
13422;BME280;6782;55.904;13.396;2023-07-20T07:27:53;100038.69;;;16.39;100.00
13422;BME280;6782;55.904;13.396;2023-07-20T07:30:41;100099.84;;;16.25;100.00
13422;BME280;6782;55.904;13.396;2023-07-20T07:33:28;100103.19;;;15.82;100.00
13422;BME280;6782;55.904;13.396;2023-07-20T07:36:15;100154.41;;;16.01;100.00
13422;BME280;6782;55.904;13.396;2023-07-20T07:39:03;100176.44;;;15.87;100.00
13422;BME280;6782;55.904;13.396;2023-07-20T07:41:52;100200.53;;;16.17;100.00
13422;BME280;6782;55.904;13.396;2023-07-20T07:44:39;100203.63;;;16.25;100.00
13422;BME280;6782;55.904;13.396;2023-07-20T07:47:27;100211.66;;;16.08;100.00
13422;BME280;6782;55.904;13.396;2023-07-20T07:50:14;100208.41;;;16.34;100.00
13422;BME280;6782;55.904;13.396;2023-07-20T07:53:01;100248.47;;;16.79;100.00
13422;BME280;6782;55.904;13.396;2023-07-20T07:55:48;100213.66;;;16.51;100.00
13422;BME280;6782;55.904;13.396;2023-07-20T07:58:37;100206.22;;;16.58;100.00
13422;BME280;6782;55.904;13.396;2023-07-20T08:01:25;100161.03;;;15.94;100.00
13422;BME280;6782;55.904;13.396;2023-07-20T08:04:12;100193.13;;;16.06;100.00
13422;BME280;6782;55.904;13.396;2023-07-20T08:07:00;100187.44;;;15.97;100.00
13422;BME280;6782;55.904;13.396;2023-07-20T08:09:48;100209.44;;;16.16;100.00
13422;BME280;6782;55.904;13.396;2023-07-20T08:12:35;100193.63;;;16.13;100.00
13422;BME280;6782;55.904;13.396;2023-07-20T08:15:24;100180.06;;;16.02;100.00
13422;BME280;6782;55.904;13.396;2023-07-20T08:18:11;100202.41;;;16.15;100.00
13422;BME280;6782;55.904;13.396;2023-07-20T08:20:58;100220.47;;;16.57;100.00
13422;BME280;6782;55.904;13.396;2023-07-20T08:23:46;100218.78;;;16.56;100.00
13422;BME280;6782;55.904;13.396;2023-07-20T08:26:33;100217.81;;;16.72;100.00
13422;BME280;6782;55.904;13.396;2023-07-20T08:29:20;100224.84;;;17.19;100.00
13422;BME280;6782;55.904;13.396;2023-07-20T08:32:09;100203.19;;;17.25;100.00
13422;BME280;6782;55.904;13.396;2023-07-20T08:34:56;100172.25;;;17.22;100.00
13422;BME280;6782;55.904;13.396;2023-07-20T08:37:44;100130.78;;;17.03;100.00
13422;BME280;6782;55.904;13.396;2023-07-20T08:40:31;100129.72;;;17.35;100.00
13422;BME280;6782;55.904;13.396;2023-07-20T08:43:19;100134.81;;;17.54;100.00
13422;BME280;6782;55.904;13.396;2023-07-20T08:46:06;100108.38;;;17.49;100.00
13422;BME280;6782;55.904;13.396;2023-07-20T08:48:56;100096.22;;;17.59;100.00
13422;BME280;6782;55.904;13.396;2023-07-20T08:51:45;100092.22;;;17.94;100.00
13422;BME280;6782;55.904;13.396;2023-07-20T08:54:33;100072.72;;;18.21;100.00
13422;BME280;6782;55.904;13.396;2023-07-20T08:57:22;100042.59;;;18.19;100.00
13422;BME280;6782;55.904;13.396;2023-07-20T09:00:11;100000.19;;;18.41;100.00
13422;BME280;6782;55.904;13.396;2023-07-20T09:03:02;99903.56;;;18.09;100.00
13422;BME280;6782;55.904;13.396;2023-07-20T09:05:51;99851.94;;;18.23;100.00
13422;BME280;6782;55.904;13.396;2023-07-20T09:08:38;99820.78;;;18.48;100.00
13422;BME280;6782;55.904;13.396;2023-07-20T09:11:26;99720.63;;;18.18;100.00
13422;BME280;6782;55.904;13.396;2023-07-20T09:14:13;99681.47;;;18.54;100.00
13422;BME280;6782;55.904;13.396;2023-07-20T09:17:00;99707.50;;;19.34;100.00
13422;BME280;6782;55.904;13.396;2023-07-20T09:19:48;99482.41;;;18.96;100.00
13422;BME280;6782;55.904;13.396;2023-07-20T09:22:37;99272.31;;;18.29;100.00
13422;BME280;6782;55.904;13.396;2023-07-20T09:25:26;99285.50;;;17.97;100.00
13422;BME280;6782;55.904;13.396;2023-07-20T09:28:14;99400.84;;;18.11;100.00
13422;BME280;6782;55.904;13.396;2023-07-20T09:31:15;99473.03;;;18.45;100.00
13422;BME280;6782;55.904;13.396;2023-07-20T09:34:04;99488.91;;;18.59;100.00
13422;BME280;6782;55.904;13.396;2023-07-20T09:36:51;99549.75;;;19.12;100.00
13422;BME280;6782;55.904;13.396;2023-07-20T09:39:44;99433.22;;;18.77;100.00
13422;BME280;6782;55.904;13.396;2023-07-20T09:42:31;99358.84;;;18.37;100.00
13422;BME280;6782;55.904;13.396;2023-07-20T09:45:20;99359.31;;;17.96;100.00
13422;BME280;6782;55.904;13.396;2023-07-20T09:48:08;99519.50;;;17.46;100.00
13422;BME280;6782;55.904;13.396;2023-07-20T09:50:56;99711.28;;;17.35;100.00
13422;BME280;6782;55.904;13.396;2023-07-20T09:53:43;99818.19;;;17.57;100.00
13422;BME280;6782;55.904;13.396;2023-07-20T09:56:33;99930.41;;;18.20;100.00
13422;BME280;6782;55.904;13.396;2023-07-20T09:59:20;99950.91;;;18.59;100.00
13422;BME280;6782;55.904;13.396;2023-07-20T10:02:12;99865.63;;;18.68;100.00
13422;BME280;6782;55.904;13.396;2023-07-20T10:05:06;99637.69;;;18.57;100.00
13422;BME280;6782;55.904;13.396;2023-07-20T10:07:56;99455.28;;;18.44;100.00
13422;BME280;6782;55.904;13.396;2023-07-20T10:10:46;99360.25;;;18.19;100.00
13422;BME280;6782;55.904;13.396;2023-07-20T10:13:37;99236.41;;;17.99;100.00
13422;BME280;6782;55.904;13.396;2023-07-20T10:16:27;99442.00;;;18.20;100.00
13422;BME280;6782;55.904;13.396;2023-07-20T10:19:22;99524.41;;;18.83;100.00
13422;BME280;6782;55.904;13.396;2023-07-20T10:22:14;99482.69;;;19.26;100.00
13422;BME280;6782;55.904;13.396;2023-07-20T10:25:02;99428.41;;;19.48;100.00
13422;BME280;6782;55.904;13.396;2023-07-20T10:27:51;99416.03;;;19.79;100.00
13422;BME280;6782;55.904;13.396;2023-07-20T10:30:43;99086.16;;;19.16;100.00
13422;BME280;6782;55.904;13.396;2023-07-20T10:33:31;99186.28;;;19.12;100.00
13422;BME280;6782;55.904;13.396;2023-07-20T10:36:25;98966.72;;;19.07;100.00
13422;BME280;6782;55.904;13.396;2023-07-20T10:39:22;98952.91;;;19.32;100.00
13422;BME280;6782;55.904;13.396;2023-07-20T10:42:10;98653.97;;;19.18;100.00
13422;BME280;6782;55.904;13.396;2023-07-20T10:44:58;98752.91;;;19.38;100.00
13422;BME280;6782;55.904;13.396;2023-07-20T10:47:49;98278.69;;;19.03;100.00
13422;BME280;6782;55.904;13.396;2023-07-20T10:50:37;98421.91;;;19.60;100.00
13422;BME280;6782;55.904;13.396;2023-07-20T10:53:24;98609.16;;;20.24;100.00
13422;BME280;6782;55.904;13.396;2023-07-20T10:56:12;97949.97;;;19.98;100.00
13422;BME280;6782;55.904;13.396;2023-07-20T10:59:01;97719.63;;;19.11;100.00
13422;BME280;6782;55.904;13.396;2023-07-20T11:02:06;97856.59;;;18.87;100.00
13422;BME280;6782;55.904;13.396;2023-07-20T11:04:56;98321.84;;;19.35;100.00
13422;BME280;6782;55.904;13.396;2023-07-20T11:07:45;98710.81;;;19.78;100.00
13422;BME280;6782;55.904;13.396;2023-07-20T11:10:32;98446.66;;;19.62;100.00
13422;BME280;6782;55.904;13.396;2023-07-20T11:13:22;97870.78;;;19.21;100.00
13422;BME280;6782;55.904;13.396;2023-07-20T11:16:11;97640.78;;;18.83;100.00
13422;BME280;6782;55.904;13.396;2023-07-20T11:18:59;97779.25;;;19.11;100.00
13422;BME280;6782;55.904;13.396;2023-07-20T11:21:50;98296.41;;;19.94;100.00
13422;BME280;6782;55.904;13.396;2023-07-20T11:24:39;98127.25;;;20.08;100.00
13422;BME280;6782;55.904;13.396;2023-07-20T11:27:27;97753.03;;;19.73;100.00
13422;BME280;6782;55.904;13.396;2023-07-20T11:30:16;97735.16;;;19.07;100.00
13422;BME280;6782;55.904;13.396;2023-07-20T11:33:03;98152.63;;;19.17;100.00
13422;BME280;6782;55.904;13.396;2023-07-20T11:35:51;98330.88;;;19.62;100.00
13422;BME280;6782;55.904;13.396;2023-07-20T11:38:41;98509.66;;;20.02;100.00
13422;BME280;6782;55.904;13.396;2023-07-20T11:41:28;98517.09;;;20.52;100.00
13422;BME280;6782;55.904;13.396;2023-07-20T11:44:16;98297.75;;;20.33;100.00
13422;BME280;6782;55.904;13.396;2023-07-20T11:47:05;98073.59;;;19.50;100.00
13422;BME280;6782;55.904;13.396;2023-07-20T11:49:54;98319.41;;;19.87;100.00
13422;BME280;6782;55.904;13.396;2023-07-20T11:52:42;98516.84;;;20.01;100.00
13422;BME280;6782;55.904;13.396;2023-07-20T11:55:32;98418.41;;;20.22;100.00
13422;BME280;6782;55.904;13.396;2023-07-20T11:58:20;98386.09;;;19.71;100.00
13422;BME280;6782;55.904;13.396;2023-07-20T12:01:08;98275.91;;;19.50;100.00
13422;BME280;6782;55.904;13.396;2023-07-20T12:03:57;98514.50;;;20.25;100.00
13422;BME280;6782;55.904;13.396;2023-07-20T12:06:48;98162.31;;;19.71;100.00
13422;BME280;6782;55.904;13.396;2023-07-20T12:09:36;98333.84;;;19.94;100.00
13422;BME280;6782;55.904;13.396;2023-07-20T12:12:25;98193.19;;;19.48;100.00
13422;BME280;6782;55.904;13.396;2023-07-20T12:15:17;98637.63;;;19.60;100.00
13422;BME280;6782;55.904;13.396;2023-07-20T12:18:05;98721.66;;;19.57;100.00
13422;BME280;6782;55.904;13.396;2023-07-20T12:20:58;98744.34;;;19.44;100.00
13422;BME280;6782;55.904;13.396;2023-07-20T12:23:46;98722.72;;;18.97;100.00
13422;BME280;6782;55.904;13.396;2023-07-20T12:26:35;99043.31;;;19.39;100.00
13422;BME280;6782;55.904;13.396;2023-07-20T12:29:23;98917.59;;;18.99;100.00
13422;BME280;6782;55.904;13.396;2023-07-20T12:32:12;98914.06;;;18.98;100.00
13422;BME280;6782;55.904;13.396;2023-07-20T12:34:59;98883.69;;;18.69;100.00
13422;BME280;6782;55.904;13.396;2023-07-20T12:37:47;98998.72;;;18.77;100.00
13422;BME280;6782;55.904;13.396;2023-07-20T12:40:34;99255.81;;;18.90;100.00
13422;BME280;6782;55.904;13.396;2023-07-20T12:43:22;99427.28;;;19.28;100.00
13422;BME280;6782;55.904;13.396;2023-07-20T12:46:12;99362.91;;;19.09;100.00
13422;BME280;6782;55.904;13.396;2023-07-20T12:49:00;99284.66;;;19.18;100.00
13422;BME280;6782;55.904;13.396;2023-07-20T12:51:47;99241.00;;;18.86;100.00
13422;BME280;6782;55.904;13.396;2023-07-20T12:54:34;99242.59;;;18.44;100.00
13422;BME280;6782;55.904;13.396;2023-07-20T12:57:22;99510.59;;;18.54;100.00
13422;BME280;6782;55.904;13.396;2023-07-20T13:00:11;99545.88;;;18.47;100.00
13422;BME280;6782;55.904;13.396;2023-07-20T13:03:02;99737.78;;;19.11;100.00
13422;BME280;6782;55.904;13.396;2023-07-20T13:05:50;99516.72;;;19.24;100.00
13422;BME280;6782;55.904;13.396;2023-07-20T13:08:37;99512.53;;;18.87;100.00
13422;BME280;6782;55.904;13.396;2023-07-20T13:11:25;99634.56;;;19.21;100.00
13422;BME280;6782;55.904;13.396;2023-07-20T13:14:12;99664.31;;;19.52;100.00
13422;BME280;6782;55.904;13.396;2023-07-20T13:17:00;99576.06;;;19.63;100.00
13422;BME280;6782;55.904;13.396;2023-07-20T13:19:48;99276.44;;;19.85;100.00
13422;BME280;6782;55.904;13.396;2023-07-20T13:22:36;99453.13;;;20.26;100.00
13422;BME280;6782;55.904;13.396;2023-07-20T13:25:23;99329.63;;;21.31;100.00
13422;BME280;6782;55.904;13.396;2023-07-20T13:28:11;98814.13;;;21.37;100.00
13422;BME280;6782;55.904;13.396;2023-07-20T13:30:58;98703.44;;;21.27;100.00
13422;BME280;6782;55.904;13.396;2023-07-20T13:33:45;98430.75;;;20.33;100.00
13422;BME280;6782;55.904;13.396;2023-07-20T13:36:37;98770.47;;;19.88;100.00
13422;BME280;6782;55.904;13.396;2023-07-20T13:39:26;99124.69;;;20.06;100.00
13422;BME280;6782;55.904;13.396;2023-07-20T13:42:14;99463.09;;;20.77;100.00
13422;BME280;6782;55.904;13.396;2023-07-20T13:45:02;99430.63;;;21.51;100.00
13422;BME280;6782;55.904;13.396;2023-07-20T13:47:51;99187.75;;;21.57;100.00
13422;BME280;6782;55.904;13.396;2023-07-20T13:50:39;99090.84;;;22.16;100.00
13422;BME280;6782;55.904;13.396;2023-07-20T13:53:28;98841.59;;;21.94;100.00
13422;BME280;6782;55.904;13.396;2023-07-20T13:56:15;98685.44;;;21.80;100.00
13422;BME280;6782;55.904;13.396;2023-07-20T13:59:03;98271.78;;;21.27;100.00
13422;BME280;6782;55.904;13.396;2023-07-20T14:01:50;98170.94;;;21.18;100.00
13422;BME280;6782;55.904;13.396;2023-07-20T14:04:37;98556.09;;;21.43;100.00
13422;BME280;6782;55.904;13.396;2023-07-20T14:07:24;98686.69;;;22.12;100.00
13422;BME280;6782;55.904;13.396;2023-07-20T14:10:13;98367.56;;;22.09;100.00
13422;BME280;6782;55.904;13.396;2023-07-20T14:13:01;98391.56;;;21.60;100.00
13422;BME280;6782;55.904;13.396;2023-07-20T14:15:48;98823.19;;;22.42;100.00
13422;BME280;6782;55.904;13.396;2023-07-20T14:18:36;98374.56;;;21.86;100.00
13422;BME280;6782;55.904;13.396;2023-07-20T14:21:23;98702.97;;;22.36;100.00
13422;BME280;6782;55.904;13.396;2023-07-20T14:24:13;98291.69;;;22.71;100.00
13422;BME280;6782;55.904;13.396;2023-07-20T14:27:02;98477.22;;;21.96;100.00
13422;BME280;6782;55.904;13.396;2023-07-20T14:29:50;98426.00;;;21.81;100.00
13422;BME280;6782;55.904;13.396;2023-07-20T14:32:38;98425.06;;;21.48;100.00